createdAt,value
2017-08-30T00:01:09.461Z,15.15
2017-08-30T00:03:36.906Z,14.94
2017-08-30T00:06:04.377Z,14.80
2017-08-30T00:08:31.821Z,14.85
2017-08-30T00:10:59.279Z,14.85
2017-08-30T00:13:26.753Z,14.73
2017-08-30T00:15:54.243Z,14.71
2017-08-30T00:18:21.694Z,14.73
2017-08-30T00:20:49.153Z,14.82
2017-08-30T00:23:16.622Z,14.62
2017-08-30T00:25:55.743Z,14.82
2017-08-30T00:28:23.217Z,14.74
2017-08-30T00:30:50.662Z,14.74
2017-08-30T00:33:18.137Z,14.68
2017-08-30T00:35:45.582Z,14.78
2017-08-30T00:38:13.038Z,14.72
2017-08-30T00:40:40.505Z,14.67
2017-08-30T00:43:07.948Z,14.60
2017-08-30T00:45:35.422Z,14.55
2017-08-30T00:48:02.865Z,14.53
2017-08-30T00:50:30.395Z,14.72
2017-08-30T00:52:57.862Z,14.56
2017-08-30T00:55:25.323Z,14.38
2017-08-30T00:57:52.794Z,14.42
2017-08-30T01:07:03.442Z,14.17
2017-08-30T01:09:30.935Z,14.25
2017-08-30T01:11:58.388Z,14.13
2017-08-30T01:14:25.828Z,14.29
2017-08-30T01:16:53.306Z,14.35
2017-08-30T01:19:20.760Z,14.48
2017-08-30T01:21:48.205Z,14.43
2017-08-30T01:24:15.678Z,14.37
2017-08-30T01:26:43.125Z,14.22
2017-08-30T01:29:10.576Z,14.08
2017-08-30T01:31:38.053Z,14.02
2017-08-30T01:34:05.520Z,14.09
2017-08-30T01:36:32.966Z,14.12
2017-08-30T01:39:00.433Z,13.96
2017-08-30T01:41:27.900Z,13.89
2017-08-30T01:43:55.377Z,13.96
2017-08-30T01:46:22.861Z,14.02
2017-08-30T01:48:50.309Z,14.08
2017-08-30T01:51:17.790Z,14.03
2017-08-30T01:53:45.227Z,13.94
2017-08-30T01:56:12.669Z,13.86
2017-08-30T01:58:40.404Z,13.75
2017-08-30T02:01:07.868Z,13.69
2017-08-30T02:03:35.324Z,13.62
2017-08-30T02:06:02.790Z,13.74
2017-08-30T02:08:30.530Z,13.75
2017-08-30T02:10:57.987Z,13.57
2017-08-30T02:13:25.436Z,13.45
2017-08-30T02:15:52.909Z,13.42
2017-08-30T02:18:20.357Z,13.39
2017-08-30T02:20:47.814Z,13.62
2017-08-30T02:23:15.273Z,13.67
2017-08-30T02:25:42.745Z,13.75
2017-08-30T02:28:10.196Z,13.57
2017-08-30T02:30:37.667Z,13.51
2017-08-30T02:33:05.137Z,13.45
2017-08-30T02:35:32.603Z,13.53
2017-08-30T02:38:00.054Z,13.66
2017-08-30T02:40:27.538Z,13.62
2017-08-30T02:42:54.993Z,13.38
2017-08-30T02:45:22.433Z,13.16
2017-08-30T02:47:49.908Z,13.36
2017-08-30T02:50:17.399Z,13.17
2017-08-30T02:52:44.850Z,13.15
2017-08-30T02:55:12.313Z,13.08
2017-08-30T02:57:39.782Z,12.99
2017-08-30T03:00:07.232Z,13.22
2017-08-30T03:02:34.706Z,13.49
2017-08-30T03:05:02.174Z,14.38
2017-08-30T03:07:29.637Z,15.27
2017-08-30T03:09:57.106Z,14.79
2017-08-30T03:12:24.545Z,14.60
2017-08-30T03:14:52.010Z,14.30
2017-08-30T03:17:19.453Z,14.93
2017-08-30T03:19:46.918Z,15.26
2017-08-30T03:22:14.369Z,15.60
2017-08-30T03:24:41.838Z,14.97
2017-08-30T03:27:09.313Z,14.81
2017-08-30T03:29:36.770Z,15.40
2017-08-30T03:32:04.241Z,14.98
2017-08-30T03:34:31.711Z,14.99
2017-08-30T03:36:59.182Z,16.08
2017-08-30T03:39:26.650Z,14.95
2017-08-30T03:41:54.147Z,15.11
2017-08-30T03:44:21.593Z,14.57
2017-08-30T03:46:49.057Z,15.62
2017-08-30T03:49:16.507Z,14.31
2017-08-30T03:51:43.963Z,13.96
2017-08-30T03:54:11.422Z,13.96
2017-08-30T03:56:38.910Z,13.78
2017-08-30T03:59:06.349Z,13.98
2017-08-30T04:01:33.815Z,13.64
2017-08-30T04:04:01.289Z,13.57
2017-08-30T04:06:28.732Z,14.02
2017-08-30T04:08:56.210Z,13.98
2017-08-30T04:11:23.678Z,13.36
2017-08-30T04:13:51.140Z,13.58
2017-08-30T04:16:18.605Z,13.74
2017-08-30T04:18:46.084Z,13.56
2017-08-30T04:21:13.537Z,13.35
2017-08-30T04:23:41.008Z,13.00
2017-08-30T04:26:08.457Z,13.26
2017-08-30T04:28:35.897Z,13.23
2017-08-30T04:31:03.368Z,13.42
2017-08-30T04:33:30.819Z,13.74
2017-08-30T04:35:58.284Z,13.97
2017-08-30T04:38:25.729Z,14.05
2017-08-30T04:40:53.177Z,13.77
2017-08-30T04:43:20.650Z,13.97
2017-08-30T04:45:48.096Z,13.89
2017-08-30T04:48:15.569Z,14.01
2017-08-30T04:50:43.029Z,14.02
2017-08-30T04:53:10.712Z,14.12
2017-08-30T04:55:38.153Z,14.14
2017-08-30T04:58:05.597Z,14.00
2017-08-30T05:00:33.069Z,14.20
2017-08-30T05:03:00.616Z,14.04
2017-08-30T05:05:28.063Z,13.91
2017-08-30T05:07:55.546Z,13.72
2017-08-30T05:10:22.994Z,13.94
2017-08-30T05:12:50.448Z,14.02
2017-08-30T05:15:17.913Z,14.18
2017-08-30T05:17:45.381Z,14.38
2017-08-30T05:20:12.820Z,14.14
2017-08-30T05:22:40.297Z,14.08
2017-08-30T05:25:07.740Z,14.85
2017-08-30T05:27:35.188Z,14.64
2017-08-30T05:30:02.656Z,14.82
2017-08-30T05:32:30.120Z,14.83
2017-08-30T05:34:57.585Z,15.07
2017-08-30T05:37:25.039Z,15.00
2017-08-30T05:39:52.529Z,15.17
2017-08-30T05:42:20.001Z,15.34
2017-08-30T05:44:47.449Z,15.13
2017-08-30T05:47:14.910Z,15.14
2017-08-30T05:49:42.391Z,15.39
2017-08-30T05:52:09.870Z,15.51
2017-08-30T05:54:37.347Z,15.32
2017-08-30T05:57:04.801Z,15.40
2017-08-30T05:59:32.561Z,15.67
2017-08-30T06:02:00.042Z,15.51
2017-08-30T06:04:27.501Z,15.77
2017-08-30T06:06:54.974Z,15.79
2017-08-30T06:09:22.425Z,15.93
2017-08-30T06:11:49.899Z,16.02
2017-08-30T06:14:17.373Z,16.03
2017-08-30T06:16:45.075Z,16.23
2017-08-30T06:19:12.545Z,16.37
2017-08-30T06:21:40.000Z,16.36
2017-08-30T06:24:07.474Z,16.57
2017-08-30T06:26:34.928Z,16.61
2017-08-30T06:29:02.407Z,16.62
2017-08-30T06:31:29.871Z,16.72
2017-08-30T06:33:57.336Z,16.86
2017-08-30T06:36:24.797Z,16.93
2017-08-30T06:38:52.430Z,17.23
2017-08-30T06:41:19.877Z,17.25
2017-08-30T06:43:47.350Z,17.40
2017-08-30T06:46:14.805Z,17.43
2017-08-30T06:48:42.556Z,17.67
2017-08-30T06:51:10.010Z,17.64
2017-08-30T06:53:37.529Z,17.59
2017-08-30T06:56:05.005Z,17.60
2017-08-30T06:58:32.454Z,17.87
2017-08-30T07:00:59.926Z,17.92
2017-08-30T07:03:27.644Z,17.94
2017-08-30T07:05:55.122Z,18.21
2017-08-30T07:08:22.569Z,18.34
2017-08-30T07:10:50.022Z,18.36
2017-08-30T07:13:17.506Z,18.42
2017-08-30T07:15:44.953Z,18.55
2017-08-30T07:18:12.433Z,18.54
2017-08-30T07:20:39.911Z,18.67
2017-08-30T07:23:07.359Z,18.70
2017-08-30T07:25:34.815Z,18.88
2017-08-30T07:34:45.574Z,19.12
2017-08-30T07:37:13.024Z,19.24
2017-08-30T07:39:40.498Z,19.36
2017-08-30T07:42:07.944Z,19.46
2017-08-30T07:44:35.392Z,19.70
2017-08-30T07:47:02.860Z,19.75
2017-08-30T07:49:30.322Z,19.79
2017-08-30T07:51:57.794Z,19.98
2017-08-30T07:54:25.233Z,20.07
2017-08-30T07:56:52.703Z,20.20
2017-08-30T07:59:20.174Z,20.31
2017-08-30T08:01:47.637Z,20.35
2017-08-30T08:04:15.115Z,20.50
2017-08-30T08:06:42.564Z,20.48
2017-08-30T08:09:10.017Z,20.63
2017-08-30T08:11:37.484Z,20.63
2017-08-30T08:14:04.938Z,20.89
2017-08-30T08:16:32.400Z,20.96
2017-08-30T08:18:59.851Z,20.89
2017-08-30T08:21:27.297Z,20.93
2017-08-30T08:23:54.757Z,21.03
2017-08-30T08:26:22.242Z,21.11
2017-08-30T08:28:49.690Z,21.11
2017-08-30T08:31:17.126Z,21.33
2017-08-30T08:33:44.588Z,21.24
2017-08-30T08:36:12.384Z,21.28
2017-08-30T08:38:39.825Z,21.44
2017-08-30T08:41:07.276Z,21.56
2017-08-30T08:43:34.736Z,21.63
2017-08-30T08:46:02.189Z,21.57
2017-08-30T08:48:29.633Z,21.78
2017-08-30T08:50:57.109Z,22.01
2017-08-30T08:53:24.561Z,22.17
2017-08-30T08:55:52.013Z,22.15
2017-08-30T08:58:19.489Z,21.87
2017-08-30T09:00:46.957Z,21.77
2017-08-30T09:03:14.420Z,22.31
2017-08-30T09:05:41.880Z,22.51
2017-08-30T09:08:09.359Z,22.49
2017-08-30T09:10:36.808Z,22.92
2017-08-30T09:13:04.283Z,22.85
2017-08-30T09:15:31.752Z,23.11
2017-08-30T09:17:59.201Z,23.26
2017-08-30T09:20:26.641Z,23.26
2017-08-30T09:22:54.118Z,23.37
2017-08-30T09:25:21.578Z,23.52
2017-08-30T09:27:49.050Z,23.70
2017-08-30T09:30:16.516Z,23.81
2017-08-30T09:32:43.986Z,23.32
2017-08-30T09:35:11.428Z,23.64
2017-08-30T09:37:38.895Z,23.96
2017-08-30T09:40:06.342Z,24.14
2017-08-30T09:42:33.805Z,24.21
2017-08-30T09:45:01.277Z,24.36
2017-08-30T09:47:28.746Z,24.50
2017-08-30T09:49:56.190Z,24.59
2017-08-30T09:52:23.636Z,24.42
2017-08-30T09:54:51.106Z,24.85
2017-08-30T09:57:18.545Z,25.01
2017-08-30T09:59:46.008Z,24.72
2017-08-30T10:02:13.470Z,24.89
2017-08-30T10:04:40.941Z,25.02
2017-08-30T10:07:08.385Z,25.60
2017-08-30T10:09:35.833Z,25.43
2017-08-30T10:12:03.296Z,25.56
2017-08-30T10:14:30.737Z,25.88
2017-08-30T10:16:58.236Z,25.76
2017-08-30T10:19:25.678Z,25.92
2017-08-30T10:21:53.148Z,25.85
2017-08-30T10:24:20.609Z,26.00
2017-08-30T10:26:48.066Z,26.16
2017-08-30T10:29:15.513Z,26.40
2017-08-30T10:31:42.985Z,26.35
2017-08-30T10:34:10.438Z,26.34
2017-08-30T10:36:37.889Z,26.44
2017-08-30T10:39:05.353Z,26.20
2017-08-30T10:41:32.801Z,26.38
2017-08-30T10:44:00.274Z,26.24
2017-08-30T10:46:28.670Z,26.50
2017-08-30T10:48:56.133Z,27.02
2017-08-30T10:51:23.589Z,27.08
2017-08-30T10:53:51.065Z,27.34
2017-08-30T10:56:18.597Z,27.49
2017-08-30T10:58:46.041Z,27.39
2017-08-30T11:01:13.506Z,27.62
2017-08-30T11:03:40.950Z,28.08
2017-08-30T11:06:08.409Z,28.31
2017-08-30T11:08:35.873Z,27.86
2017-08-30T11:11:03.323Z,28.12
2017-08-30T11:13:30.765Z,28.27
2017-08-30T11:15:58.237Z,28.57
2017-08-30T11:18:25.709Z,28.57
2017-08-30T11:20:53.421Z,28.45
2017-08-30T11:23:20.862Z,28.56
2017-08-30T11:25:48.309Z,29.25
2017-08-30T11:28:15.778Z,29.69
2017-08-30T11:30:43.250Z,29.21
2017-08-30T11:33:10.729Z,29.57
2017-08-30T11:35:38.173Z,30.65
2017-08-30T11:38:05.629Z,30.17
2017-08-30T11:40:33.100Z,30.29
2017-08-30T11:43:00.868Z,30.10
2017-08-30T11:45:28.316Z,31.91
2017-08-30T11:47:55.786Z,31.96
2017-08-30T11:50:23.257Z,32.07
2017-08-30T11:52:50.702Z,32.27
2017-08-30T11:55:18.170Z,32.96
2017-08-30T11:57:45.645Z,31.85
2017-08-30T12:00:13.114Z,34.16
2017-08-30T12:02:40.558Z,32.36
2017-08-30T12:05:08.060Z,32.84
2017-08-30T12:07:35.530Z,33.75
2017-08-30T12:10:02.981Z,32.62
2017-08-30T12:12:30.454Z,32.34
2017-08-30T12:14:57.907Z,35.46
2017-08-30T12:17:25.369Z,32.04
2017-08-30T12:19:52.819Z,32.38
2017-08-30T12:22:20.269Z,32.60
2017-08-30T12:24:47.742Z,33.23
2017-08-30T12:27:15.220Z,33.34
2017-08-30T12:29:42.887Z,36.21
2017-08-30T12:32:10.366Z,34.25
2017-08-30T12:34:37.866Z,33.41
2017-08-30T12:37:10.813Z,34.06
2017-08-30T12:39:39.097Z,33.53
2017-08-30T12:42:06.576Z,33.04
2017-08-30T12:44:34.173Z,34.15
2017-08-30T12:47:01.638Z,34.02
2017-08-30T12:49:29.083Z,34.76
2017-08-30T12:51:56.570Z,35.67
2017-08-30T12:54:24.272Z,33.86
2017-08-30T12:56:51.722Z,33.79
2017-08-30T12:59:19.168Z,34.43
2017-08-30T13:01:46.705Z,33.88
2017-08-30T13:04:14.152Z,34.32
2017-08-30T13:06:41.619Z,35.72
2017-08-30T13:09:09.092Z,35.66
2017-08-30T13:11:36.547Z,34.70
2017-08-30T13:14:04.041Z,34.50
2017-08-30T13:16:31.494Z,35.01
2017-08-30T13:18:58.967Z,35.19
2017-08-30T13:21:26.410Z,35.35
2017-08-30T13:23:54.151Z,34.46
2017-08-30T13:26:21.627Z,35.20
2017-08-30T13:28:49.101Z,34.74
2017-08-30T13:31:16.584Z,33.26
2017-08-30T13:33:44.053Z,34.01
2017-08-30T13:36:11.525Z,35.31
2017-08-30T13:38:38.972Z,35.70
2017-08-30T13:41:06.444Z,37.33
2017-08-30T13:43:33.916Z,35.52
2017-08-30T13:46:01.371Z,34.42
2017-08-30T13:48:28.842Z,34.15
2017-08-30T13:50:56.312Z,34.11
2017-08-30T13:53:23.756Z,34.62
2017-08-30T13:55:51.232Z,34.77
2017-08-30T13:58:18.694Z,36.32
2017-08-30T14:00:46.162Z,36.73
2017-08-30T14:03:13.611Z,35.51
2017-08-30T14:05:41.049Z,34.45
2017-08-30T14:08:08.677Z,34.86
2017-08-30T14:10:36.223Z,34.90
2017-08-30T14:19:46.856Z,34.00
2017-08-30T14:22:14.304Z,36.29
2017-08-30T14:24:41.901Z,34.73
2017-08-30T14:27:09.357Z,34.18
2017-08-30T14:29:36.818Z,34.28
2017-08-30T14:32:04.290Z,34.88
2017-08-30T14:34:31.741Z,34.70
2017-08-30T14:36:59.186Z,34.60
2017-08-30T14:39:26.658Z,34.78
2017-08-30T14:41:54.129Z,35.61
2017-08-30T14:44:21.593Z,34.58
2017-08-30T14:46:49.041Z,35.22
2017-08-30T14:49:16.490Z,36.39
2017-08-30T14:51:43.961Z,36.09
2017-08-30T14:54:11.406Z,35.09
2017-08-30T14:56:38.845Z,35.30
2017-08-30T14:59:06.313Z,35.00
2017-08-30T15:01:33.763Z,34.70
2017-08-30T15:04:01.201Z,35.43
2017-08-30T15:06:28.669Z,35.63
2017-08-30T15:08:56.119Z,34.86
2017-08-30T15:11:23.582Z,33.92
2017-08-30T15:13:51.033Z,34.94
2017-08-30T15:16:18.526Z,35.02
2017-08-30T15:18:45.992Z,34.92
2017-08-30T15:21:13.479Z,34.82
2017-08-30T15:23:40.930Z,35.50
2017-08-30T15:26:08.368Z,34.59
2017-08-30T15:28:35.845Z,34.75
2017-08-30T15:31:03.609Z,34.29
2017-08-30T15:33:31.066Z,34.46
2017-08-30T15:35:58.513Z,34.84
2017-08-30T15:38:25.981Z,34.70
2017-08-30T15:40:53.443Z,35.07
2017-08-30T15:43:20.918Z,34.68
2017-08-30T15:45:48.369Z,34.52
2017-08-30T15:48:16.148Z,34.45
2017-08-30T15:50:43.622Z,34.65
2017-08-30T15:53:11.065Z,34.70
2017-08-30T15:55:38.504Z,34.37
2017-08-30T15:58:05.977Z,34.00
2017-08-30T16:00:33.437Z,34.47
2017-08-30T16:03:00.910Z,34.35
2017-08-30T16:05:28.350Z,34.25
2017-08-30T16:07:55.801Z,34.23
2017-08-30T16:10:23.334Z,33.88
2017-08-30T16:12:50.791Z,34.04
2017-08-30T16:15:18.263Z,34.47
2017-08-30T16:17:45.703Z,34.08
2017-08-30T16:20:13.151Z,34.03
2017-08-30T16:22:40.627Z,33.78
2017-08-30T16:25:08.103Z,33.40
2017-08-30T16:27:35.582Z,33.72
2017-08-30T16:30:03.050Z,33.84
2017-08-30T16:32:30.502Z,33.53
2017-08-30T16:34:57.970Z,33.23
2017-08-30T16:37:25.417Z,33.37
2017-08-30T16:39:52.885Z,32.99
2017-08-30T16:42:20.326Z,32.66
2017-08-30T16:44:47.799Z,32.63
2017-08-30T16:47:15.240Z,32.94
2017-08-30T16:49:43.412Z,32.70
2017-08-30T16:52:10.863Z,32.95
2017-08-30T16:54:38.309Z,32.36
2017-08-30T16:57:06.577Z,32.48
2017-08-30T16:59:34.366Z,31.20
2017-08-30T17:02:01.871Z,31.44
2017-08-30T17:04:29.798Z,31.73
2017-08-30T17:06:57.984Z,31.33
2017-08-30T17:09:25.458Z,31.06
2017-08-30T17:11:52.902Z,31.06
2017-08-30T17:14:20.377Z,30.72
2017-08-30T17:16:47.825Z,30.43
2017-08-30T17:19:15.297Z,29.81
2017-08-30T17:21:42.745Z,29.11
2017-08-30T17:24:10.206Z,28.62
2017-08-30T17:26:38.345Z,28.65
2017-08-30T17:29:06.905Z,28.17
2017-08-30T17:31:34.369Z,27.87
2017-08-30T17:34:01.813Z,27.67
2017-08-30T17:36:29.273Z,27.39
2017-08-30T17:38:56.741Z,27.23
2017-08-30T17:41:24.215Z,26.90
2017-08-30T17:43:51.660Z,26.74
2017-08-30T17:46:19.829Z,26.41
2017-08-30T17:48:47.502Z,26.15
2017-08-30T17:51:15.193Z,25.90
2017-08-30T17:53:43.668Z,25.81
2017-08-30T17:56:11.113Z,25.73
2017-08-30T17:58:38.561Z,25.68
2017-08-30T18:01:06.030Z,25.77
2017-08-30T18:03:33.485Z,25.54
2017-08-30T18:06:00.959Z,25.24
2017-08-30T18:08:29.313Z,25.00
2017-08-30T18:10:56.792Z,24.93
2017-08-30T18:13:24.241Z,24.75
2017-08-30T18:15:51.697Z,24.55
2017-08-30T18:18:20.206Z,24.37
2017-08-30T18:20:47.837Z,24.30
2017-08-30T18:23:15.343Z,24.19
2017-08-30T18:25:43.801Z,24.12
2017-08-30T18:28:12.021Z,23.93
2017-08-30T18:30:39.595Z,23.71
2017-08-30T18:33:07.113Z,23.64
2017-08-30T18:35:34.736Z,23.53
2017-08-30T18:38:02.557Z,23.45
2017-08-30T18:40:30.011Z,23.33
2017-08-30T18:42:57.465Z,23.38
2017-08-30T18:45:24.960Z,23.43
2017-08-30T18:47:52.430Z,23.39
2017-08-30T18:50:19.951Z,23.31
2017-08-30T18:52:47.423Z,23.32
2017-08-30T18:55:14.926Z,23.19
2017-08-30T18:57:42.420Z,23.15
2017-08-30T19:00:09.894Z,23.05
2017-08-30T19:02:37.360Z,23.06
2017-08-30T19:05:04.961Z,22.99
2017-08-30T19:07:32.455Z,22.96
2017-08-30T19:10:00.150Z,22.87
2017-08-30T19:12:27.685Z,22.78
2017-08-30T19:14:55.153Z,22.83
2017-08-30T19:17:22.627Z,22.76
2017-08-30T19:19:50.108Z,22.68
2017-08-30T19:22:17.596Z,22.75
2017-08-30T19:24:45.504Z,22.75
2017-08-30T19:27:13.003Z,22.61
2017-08-30T19:29:40.504Z,22.48
2017-08-30T19:32:08.006Z,22.43
2017-08-30T19:34:35.467Z,22.46
2017-08-30T19:37:03.490Z,22.46
2017-08-30T19:39:30.990Z,22.24
2017-08-30T19:41:58.508Z,22.34
2017-08-30T19:44:25.970Z,22.27
2017-08-30T19:46:53.456Z,22.28
2017-08-30T19:49:20.920Z,22.22
2017-08-30T19:51:48.410Z,22.22
2017-08-30T19:54:15.864Z,22.25
2017-08-30T19:56:43.319Z,22.08
2017-08-30T19:59:10.826Z,22.09
2017-08-30T20:01:38.288Z,22.08
2017-08-30T20:04:05.787Z,22.01
2017-08-30T20:06:33.245Z,21.95
2017-08-30T20:09:00.694Z,21.91
2017-08-30T20:11:28.290Z,21.89
2017-08-30T20:13:55.753Z,21.82
2017-08-30T20:16:23.266Z,21.62
2017-08-30T20:18:50.726Z,21.53
2017-08-30T20:21:18.174Z,21.36
2017-08-30T20:23:45.650Z,21.31
2017-08-30T20:26:13.141Z,21.14
2017-08-30T20:28:40.846Z,21.13
2017-08-30T20:31:08.305Z,21.11
2017-08-30T20:33:35.790Z,21.00
2017-08-30T20:36:03.283Z,20.86
2017-08-30T20:38:30.786Z,20.93
2017-08-30T20:40:58.235Z,20.88
2017-08-30T20:43:25.701Z,20.83
2017-08-30T20:45:53.175Z,20.89
2017-08-30T20:48:20.626Z,20.95
2017-08-30T20:50:48.185Z,20.87
2017-08-30T20:53:15.668Z,20.83
2017-08-30T20:55:43.109Z,20.84
2017-08-30T20:58:10.601Z,20.81
2017-08-30T21:00:38.057Z,20.76
2017-08-30T21:03:05.552Z,20.57
2017-08-30T21:05:32.997Z,20.61
2017-08-30T21:08:00.465Z,20.62
2017-08-30T21:10:27.941Z,20.58
2017-08-30T21:12:55.402Z,20.59
2017-08-30T21:15:22.882Z,20.61
2017-08-30T21:17:50.368Z,20.60
2017-08-30T21:20:17.834Z,20.62
2017-08-30T21:22:45.305Z,20.75
2017-08-30T21:25:12.778Z,20.75
2017-08-30T21:27:40.225Z,20.73
2017-08-30T21:30:07.674Z,20.81
2017-08-30T21:32:35.273Z,20.92
2017-08-30T21:35:02.717Z,20.84
2017-08-30T21:37:30.159Z,20.97
2017-08-30T21:39:57.752Z,20.92
2017-08-30T21:42:25.205Z,20.97
2017-08-30T21:44:52.693Z,20.89
2017-08-30T21:47:20.144Z,20.88
2017-08-30T21:49:47.600Z,20.83
2017-08-30T21:52:15.081Z,20.85
2017-08-30T21:54:42.561Z,20.89
2017-08-30T21:57:10.036Z,20.78
2017-08-30T21:59:37.505Z,20.79
2017-08-30T22:02:04.969Z,20.67
2017-08-30T22:04:32.414Z,20.55
2017-08-30T22:06:59.887Z,20.51
2017-08-30T22:09:27.338Z,20.61
2017-08-30T22:11:54.807Z,20.75
2017-08-30T22:14:22.293Z,20.66
2017-08-30T22:16:49.746Z,20.52
2017-08-30T22:19:17.218Z,20.43
2017-08-30T22:21:44.674Z,20.44
2017-08-30T22:24:12.145Z,20.33
2017-08-30T22:26:39.585Z,20.17
2017-08-30T22:29:07.063Z,20.37
2017-08-30T22:31:34.501Z,20.34
2017-08-30T22:34:01.977Z,20.28
2017-08-30T22:36:29.430Z,20.58
2017-08-30T22:38:56.898Z,20.36
2017-08-30T22:41:24.338Z,20.47
2017-08-30T22:43:51.818Z,20.37
2017-08-30T22:46:19.256Z,20.39
2017-08-30T22:48:46.702Z,20.29
2017-08-30T22:51:14.193Z,20.22
2017-08-30T22:53:41.642Z,20.24
2017-08-30T22:56:09.117Z,20.33
2017-08-30T22:58:36.561Z,20.55
2017-08-30T23:01:04.038Z,20.55
2017-08-30T23:03:31.493Z,20.56
2017-08-30T23:05:59.368Z,20.12
2017-08-30T23:08:26.821Z,19.88
2017-08-30T23:10:54.282Z,19.82
2017-08-30T23:13:21.760Z,19.88
2017-08-30T23:15:49.225Z,19.93
2017-08-30T23:18:16.685Z,20.00
2017-08-30T23:20:44.168Z,19.78
2017-08-30T23:23:11.630Z,19.62
2017-08-30T23:25:39.105Z,19.59
2017-08-30T23:28:06.548Z,19.50
2017-08-30T23:30:34.009Z,19.41
2017-08-30T23:33:01.483Z,19.36
2017-08-30T23:35:28.929Z,19.36
2017-08-30T23:37:56.381Z,19.30
2017-08-30T23:40:23.850Z,19.29
2017-08-30T23:42:51.573Z,19.49
2017-08-30T23:45:19.021Z,19.55
2017-08-30T23:47:46.481Z,19.55
2017-08-30T23:50:13.957Z,19.46
2017-08-30T23:52:41.404Z,19.50
2017-08-30T23:55:08.887Z,19.44
2017-08-30T23:57:36.336Z,19.45
